sensor_id;sensor_type;location;lat;lon;timestamp;pressure;altitude;pressure_sealevel;temperature;humidity
33845;BME280;20145;43.118;25.694;2023-02-10T00:00:22;101821.81;;;-8.01;78.99
33845;BME280;20145;43.118;25.694;2023-02-10T00:02:48;101830.03;;;-8.11;79.75
33845;BME280;20145;43.118;25.694;2023-02-10T00:05:13;101819.22;;;-8.18;79.87
33845;BME280;20145;43.118;25.694;2023-02-10T00:07:39;101819.78;;;-8.21;79.47
33845;BME280;20145;43.118;25.694;2023-02-10T00:10:05;101817.72;;;-8.25;77.94
33845;BME280;20145;43.118;25.694;2023-02-10T00:12:30;101830.25;;;-8.25;77.44
33845;BME280;20145;43.118;25.694;2023-02-10T00:14:56;101820.91;;;-8.35;77.13
33845;BME280;20145;43.118;25.694;2023-02-10T00:17:21;101825.75;;;-8.45;78.08
33845;BME280;20145;43.118;25.694;2023-02-10T00:19:48;101819.94;;;-8.52;77.67
33845;BME280;20145;43.118;25.694;2023-02-10T00:22:13;101823.91;;;-8.55;78.31
33845;BME280;20145;43.118;25.694;2023-02-10T00:24:39;101819.47;;;-8.57;78.70
33845;BME280;20145;43.118;25.694;2023-02-10T00:27:04;101811.47;;;-8.62;77.67
33845;BME280;20145;43.118;25.694;2023-02-10T00:29:30;101814.63;;;-8.56;79.43
33845;BME280;20145;43.118;25.694;2023-02-10T00:31:57;101814.63;;;-8.56;79.39
33845;BME280;20145;43.118;25.694;2023-02-10T00:34:23;101813.63;;;-8.49;78.47
33845;BME280;20145;43.118;25.694;2023-02-10T00:36:49;101801.69;;;-8.51;79.70
33845;BME280;20145;43.118;25.694;2023-02-10T00:39:16;101806.44;;;-8.46;78.24
33845;BME280;20145;43.118;25.694;2023-02-10T00:41:42;101797.78;;;-8.41;78.83
33845;BME280;20145;43.118;25.694;2023-02-10T00:44:08;101804.13;;;-8.36;79.22
33845;BME280;20145;43.118;25.694;2023-02-10T00:46:34;101810.63;;;-8.29;80.45
33845;BME280;20145;43.118;25.694;2023-02-10T00:48:59;101799.41;;;-8.33;79.37
33845;BME280;20145;43.118;25.694;2023-02-10T00:51:25;101798.97;;;-8.28;80.02
33845;BME280;20145;43.118;25.694;2023-02-10T00:53:50;101787.97;;;-8.31;79.96
33845;BME280;20145;43.118;25.694;2023-02-10T00:56:19;101789.56;;;-8.31;78.85
33845;BME280;20145;43.118;25.694;2023-02-10T00:58:45;101795.47;;;-8.31;79.33
33845;BME280;20145;43.118;25.694;2023-02-10T01:01:11;101791.16;;;-8.40;78.67
33845;BME280;20145;43.118;25.694;2023-02-10T01:03:38;101799.97;;;-8.44;78.81
33845;BME280;20145;43.118;25.694;2023-02-10T01:06:04;101795.72;;;-8.36;79.51
33845;BME280;20145;43.118;25.694;2023-02-10T01:08:30;101792.22;;;-8.30;80.19
33845;BME280;20145;43.118;25.694;2023-02-10T01:11:06;101794.72;;;-8.30;79.25
33845;BME280;20145;43.118;25.694;2023-02-10T01:13:33;101791.72;;;-8.43;79.06
33845;BME280;20145;43.118;25.694;2023-02-10T01:15:59;101780.00;;;-8.60;77.74
33845;BME280;20145;43.118;25.694;2023-02-10T01:18:26;101777.31;;;-8.70;78.12
33845;BME280;20145;43.118;25.694;2023-02-10T01:20:52;101789.06;;;-8.69;77.46
33845;BME280;20145;43.118;25.694;2023-02-10T01:23:17;101788.84;;;-8.79;77.43
33845;BME280;20145;43.118;25.694;2023-02-10T01:25:43;101787.47;;;-8.84;77.16
33845;BME280;20145;43.118;25.694;2023-02-10T01:28:09;101784.22;;;-8.92;77.62
33845;BME280;20145;43.118;25.694;2023-02-10T01:30:35;101786.53;;;-8.93;77.99
33845;BME280;20145;43.118;25.694;2023-02-10T01:33:01;101781.06;;;-8.98;77.98
33845;BME280;20145;43.118;25.694;2023-02-10T01:35:27;101786.16;;;-9.05;76.97
33845;BME280;20145;43.118;25.694;2023-02-10T01:37:53;101786.41;;;-9.11;78.03
33845;BME280;20145;43.118;25.694;2023-02-10T01:40:20;101785.09;;;-9.07;77.87
33845;BME280;20145;43.118;25.694;2023-02-10T01:42:45;101787.28;;;-9.10;77.44
33845;BME280;20145;43.118;25.694;2023-02-10T01:45:16;101771.03;;;-9.23;76.59
33845;BME280;20145;43.118;25.694;2023-02-10T01:47:42;101770.03;;;-9.32;77.54
33845;BME280;20145;43.118;25.694;2023-02-10T01:50:10;101770.53;;;-9.27;77.67
33845;BME280;20145;43.118;25.694;2023-02-10T01:52:36;101770.78;;;-9.33;75.82
33845;BME280;20145;43.118;25.694;2023-02-10T01:55:07;101771.16;;;-9.37;76.13
33845;BME280;20145;43.118;25.694;2023-02-10T01:57:35;101771.97;;;-9.45;75.99
33845;BME280;20145;43.118;25.694;2023-02-10T02:00:03;101768.91;;;-9.43;76.36
33845;BME280;20145;43.118;25.694;2023-02-10T02:02:29;101765.22;;;-9.46;77.23
33845;BME280;20145;43.118;25.694;2023-02-10T02:04:59;101770.63;;;-9.50;77.25
33845;BME280;20145;43.118;25.694;2023-02-10T02:07:28;101766.00;;;-9.54;77.78
33845;BME280;20145;43.118;25.694;2023-02-10T02:09:56;101738.53;;;-9.70;77.77
33845;BME280;20145;43.118;25.694;2023-02-10T02:12:55;101765.38;;;-9.60;77.28
33845;BME280;20145;43.118;25.694;2023-02-10T02:16:01;101768.50;;;-9.54;79.01
33845;BME280;20145;43.118;25.694;2023-02-10T02:19:00;101774.16;;;-9.48;79.02
33845;BME280;20145;43.118;25.694;2023-02-10T02:21:58;101771.00;;;-9.54;77.65
33845;BME280;20145;43.118;25.694;2023-02-10T02:24:47;101761.34;;;-9.51;78.99
33845;BME280;20145;43.118;25.694;2023-02-10T02:33:23;101768.53;;;-9.38;78.37
33845;BME280;20145;43.118;25.694;2023-02-10T02:36:16;101774.81;;;-9.42;77.65
33845;BME280;20145;43.118;25.694;2023-02-10T02:38:43;101762.22;;;-9.35;78.96
33845;BME280;20145;43.118;25.694;2023-02-10T02:41:09;101758.09;;;-9.34;77.81
33845;BME280;20145;43.118;25.694;2023-02-10T02:43:36;101756.34;;;-9.35;77.71
33845;BME280;20145;43.118;25.694;2023-02-10T02:49:37;101755.41;;;-9.45;77.87
33845;BME280;20145;43.118;25.694;2023-02-10T02:52:19;101763.38;;;-9.56;77.97
33845;BME280;20145;43.118;25.694;2023-02-10T02:55:20;101763.00;;;-9.59;77.53
33845;BME280;20145;43.118;25.694;2023-02-10T02:57:57;101760.13;;;-9.71;76.05
33845;BME280;20145;43.118;25.694;2023-02-10T03:00:30;101768.91;;;-9.74;76.29
33845;BME280;20145;43.118;25.694;2023-02-10T03:02:57;101769.13;;;-9.80;76.08
33845;BME280;20145;43.118;25.694;2023-02-10T03:05:28;101761.06;;;-9.93;75.79
33845;BME280;20145;43.118;25.694;2023-02-10T03:07:54;101769.41;;;-9.93;77.26
33845;BME280;20145;43.118;25.694;2023-02-10T03:10:20;101767.56;;;-10.02;75.99
33845;BME280;20145;43.118;25.694;2023-02-10T03:12:47;101760.41;;;-9.99;76.54
33845;BME280;20145;43.118;25.694;2023-02-10T03:15:12;101750.25;;;-10.01;77.45
33845;BME280;20145;43.118;25.694;2023-02-10T03:17:38;101749.59;;;-10.07;78.15
33845;BME280;20145;43.118;25.694;2023-02-10T03:20:04;101728.13;;;-10.21;77.40
33845;BME280;20145;43.118;25.694;2023-02-10T03:22:30;101746.34;;;-10.06;76.61
33845;BME280;20145;43.118;25.694;2023-02-10T03:24:55;101739.09;;;-10.12;76.63
33845;BME280;20145;43.118;25.694;2023-02-10T03:27:21;101740.56;;;-10.14;77.20
33845;BME280;20145;43.118;25.694;2023-02-10T03:29:46;101736.69;;;-10.19;77.91
33845;BME280;20145;43.118;25.694;2023-02-10T03:32:15;101734.13;;;-10.27;76.57
33845;BME280;20145;43.118;25.694;2023-02-10T03:34:42;101727.53;;;-10.27;76.80
33845;BME280;20145;43.118;25.694;2023-02-10T03:37:08;101708.91;;;-10.38;76.57
33845;BME280;20145;43.118;25.694;2023-02-10T03:39:34;101714.94;;;-10.36;76.62
33845;BME280;20145;43.118;25.694;2023-02-10T03:41:59;101708.78;;;-10.46;76.00
33845;BME280;20145;43.118;25.694;2023-02-10T03:44:25;101713.88;;;-10.38;77.00
33845;BME280;20145;43.118;25.694;2023-02-10T03:46:51;101708.72;;;-10.39;77.73
33845;BME280;20145;43.118;25.694;2023-02-10T03:49:16;101708.78;;;-10.46;76.28
33845;BME280;20145;43.118;25.694;2023-02-10T03:51:42;101699.03;;;-10.52;77.55
33845;BME280;20145;43.118;25.694;2023-02-10T03:54:08;101685.94;;;-10.42;76.93
33845;BME280;20145;43.118;25.694;2023-02-10T03:56:34;101685.72;;;-10.37;77.06
33845;BME280;20145;43.118;25.694;2023-02-10T03:59:01;101678.47;;;-10.42;75.92
33845;BME280;20145;43.118;25.694;2023-02-10T04:01:27;101665.88;;;-10.51;75.64
33845;BME280;20145;43.118;25.694;2023-02-10T04:03:53;101687.72;;;-10.41;74.83
33845;BME280;20145;43.118;25.694;2023-02-10T04:06:19;101689.91;;;-10.44;75.40
33845;BME280;20145;43.118;25.694;2023-02-10T04:08:46;101692.41;;;-10.44;76.38
33845;BME280;20145;43.118;25.694;2023-02-10T04:11:14;101695.44;;;-10.47;76.93
33845;BME280;20145;43.118;25.694;2023-02-10T04:13:40;101699.13;;;-10.43;77.48
33845;BME280;20145;43.118;25.694;2023-02-10T04:16:08;101704.09;;;-10.36;77.26
33845;BME280;20145;43.118;25.694;2023-02-10T04:18:34;101697.31;;;-10.37;77.19
33845;BME280;20145;43.118;25.694;2023-02-10T04:21:01;101692.63;;;-10.34;76.62
33845;BME280;20145;43.118;25.694;2023-02-10T04:23:28;101696.19;;;-10.32;77.12
33845;BME280;20145;43.118;25.694;2023-02-10T04:25:54;101698.50;;;-10.34;75.71
33845;BME280;20145;43.118;25.694;2023-02-10T04:28:19;101688.19;;;-10.37;76.08
33845;BME280;20145;43.118;25.694;2023-02-10T04:30:45;101689.81;;;-10.37;75.19
33845;BME280;20145;43.118;25.694;2023-02-10T04:33:11;101685.72;;;-10.37;76.34
33845;BME280;20145;43.118;25.694;2023-02-10T04:35:37;101691.44;;;-10.38;75.66
33845;BME280;20145;43.118;25.694;2023-02-10T04:38:03;101689.34;;;-10.42;75.44
33845;BME280;20145;43.118;25.694;2023-02-10T04:40:30;101687.72;;;-10.41;75.60
33845;BME280;20145;43.118;25.694;2023-02-10T04:42:56;101691.09;;;-10.41;76.63
33845;BME280;20145;43.118;25.694;2023-02-10T04:45:22;101685.94;;;-10.42;76.66
33845;BME280;20145;43.118;25.694;2023-02-10T04:47:47;101677.75;;;-10.41;77.07
33845;BME280;20145;43.118;25.694;2023-02-10T04:50:13;101689.13;;;-10.36;76.39
33845;BME280;20145;43.118;25.694;2023-02-10T04:52:39;101691.19;;;-10.32;76.63
33845;BME280;20145;43.118;25.694;2023-02-10T04:55:04;101682.66;;;-10.34;77.57
33845;BME280;20145;43.118;25.694;2023-02-10T04:57:30;101681.47;;;-10.38;76.90
33845;BME280;20145;43.118;25.694;2023-02-10T04:59:55;101677.91;;;-10.40;76.49
33845;BME280;20145;43.118;25.694;2023-02-10T05:02:21;101678.63;;;-10.41;78.11
33845;BME280;20145;43.118;25.694;2023-02-10T05:04:47;101680.06;;;-10.43;76.99
33845;BME280;20145;43.118;25.694;2023-02-10T05:07:12;101681.28;;;-10.39;77.45
33845;BME280;20145;43.118;25.694;2023-02-10T05:09:38;101676.06;;;-10.34;78.04
33845;BME280;20145;43.118;25.694;2023-02-10T05:12:03;101690.56;;;-10.22;78.82
33845;BME280;20145;43.118;25.694;2023-02-10T05:14:29;101676.28;;;-10.23;77.47
33845;BME280;20145;43.118;25.694;2023-02-10T05:16:55;101680.59;;;-10.22;78.01
33845;BME280;20145;43.118;25.694;2023-02-10T05:19:20;101651.69;;;-10.36;78.85
33845;BME280;20145;43.118;25.694;2023-02-10T05:21:46;101692.81;;;-10.17;77.61
33845;BME280;20145;43.118;25.694;2023-02-10T05:24:12;101692.47;;;-10.20;77.94
33845;BME280;20145;43.118;25.694;2023-02-10T05:26:37;101708.81;;;-10.15;78.27
33845;BME280;20145;43.118;25.694;2023-02-10T05:29:03;101703.28;;;-10.12;77.06
33845;BME280;20145;43.118;25.694;2023-02-10T05:31:28;101680.16;;;-10.34;76.18
33845;BME280;20145;43.118;25.694;2023-02-10T05:33:54;101703.41;;;-10.26;77.61
33845;BME280;20145;43.118;25.694;2023-02-10T05:36:20;101701.69;;;-10.27;76.21
33845;BME280;20145;43.118;25.694;2023-02-10T05:38:46;101700.63;;;-10.29;76.18
33845;BME280;20145;43.118;25.694;2023-02-10T05:41:30;101707.06;;;-10.31;76.92
33845;BME280;20145;43.118;25.694;2023-02-10T05:43:56;101697.31;;;-10.37;77.12
33845;BME280;20145;43.118;25.694;2023-02-10T05:46:22;101685.94;;;-10.42;76.88
33845;BME280;20145;43.118;25.694;2023-02-10T05:48:47;101704.75;;;-10.30;77.33
33845;BME280;20145;43.118;25.694;2023-02-10T05:51:13;101711.97;;;-10.24;75.92
33845;BME280;20145;43.118;25.694;2023-02-10T05:53:38;101714.13;;;-10.12;75.57
33845;BME280;20145;43.118;25.694;2023-02-10T05:56:04;101715.69;;;-10.05;76.50
33845;BME280;20145;43.118;25.694;2023-02-10T05:58:30;101713.06;;;-9.91;76.69
33845;BME280;20145;43.118;25.694;2023-02-10T06:01:01;101718.31;;;-9.80;76.15
33845;BME280;20145;43.118;25.694;2023-02-10T06:03:30;101720.56;;;-9.75;76.38
33845;BME280;20145;43.118;25.694;2023-02-10T06:05:56;101720.97;;;-9.63;76.63
33845;BME280;20145;43.118;25.694;2023-02-10T06:08:21;101721.38;;;-9.51;74.78
33845;BME280;20145;43.118;25.694;2023-02-10T06:10:47;101716.75;;;-9.39;75.33
33845;BME280;20145;43.118;25.694;2023-02-10T06:13:12;101720.38;;;-9.29;76.62
33845;BME280;20145;43.118;25.694;2023-02-10T06:15:38;101723.84;;;-9.19;76.40
33845;BME280;20145;43.118;25.694;2023-02-10T06:18:03;101703.59;;;-9.14;77.23
33845;BME280;20145;43.118;25.694;2023-02-10T06:20:29;101719.66;;;-8.87;77.20
33845;BME280;20145;43.118;25.694;2023-02-10T06:22:54;101723.72;;;-8.72;77.91
33845;BME280;20145;43.118;25.694;2023-02-10T06:25:20;101718.50;;;-8.58;78.58
33845;BME280;20145;43.118;25.694;2023-02-10T06:27:45;101728.47;;;-8.33;80.11
33845;BME280;20145;43.118;25.694;2023-02-10T06:30:11;101724.56;;;-8.14;80.62
33845;BME280;20145;43.118;25.694;2023-02-10T06:32:37;101723.56;;;-7.98;81.02
33845;BME280;20145;43.118;25.694;2023-02-10T06:35:03;101732.72;;;-7.81;79.85
33845;BME280;20145;43.118;25.694;2023-02-10T06:37:29;101727.31;;;-7.69;79.23
33845;BME280;20145;43.118;25.694;2023-02-10T06:39:54;101737.22;;;-7.61;78.98
33845;BME280;20145;43.118;25.694;2023-02-10T06:42:20;101736.06;;;-7.56;78.25
33845;BME280;20145;43.118;25.694;2023-02-10T06:44:45;101740.63;;;-7.52;79.19
33845;BME280;20145;43.118;25.694;2023-02-10T06:47:12;101741.50;;;-7.43;78.57
33845;BME280;20145;43.118;25.694;2023-02-10T06:49:39;101742.25;;;-7.35;78.93
33845;BME280;20145;43.118;25.694;2023-02-10T06:52:04;101744.16;;;-7.42;79.16
33845;BME280;20145;43.118;25.694;2023-02-10T06:54:30;101749.78;;;-7.35;79.53
33845;BME280;20145;43.118;25.694;2023-02-10T06:56:55;101760.84;;;-7.33;78.05
33845;BME280;20145;43.118;25.694;2023-02-10T06:59:21;101755.25;;;-7.22;79.68
33845;BME280;20145;43.118;25.694;2023-02-10T07:01:47;101745.66;;;-7.18;79.54
33845;BME280;20145;43.118;25.694;2023-02-10T07:04:12;101733.53;;;-7.13;80.78
33845;BME280;20145;43.118;25.694;2023-02-10T07:06:38;101748.16;;;-6.91;80.89
33845;BME280;20145;43.118;25.694;2023-02-10T07:09:05;101735.03;;;-7.06;80.81
33845;BME280;20145;43.118;25.694;2023-02-10T07:11:32;101750.09;;;-6.98;80.50
33845;BME280;20145;43.118;25.694;2023-02-10T07:13:59;101758.59;;;-6.96;80.85
33845;BME280;20145;43.118;25.694;2023-02-10T07:16:24;101759.34;;;-6.79;81.69
33845;BME280;20145;43.118;25.694;2023-02-10T07:18:50;101762.47;;;-6.73;79.66
33845;BME280;20145;43.118;25.694;2023-02-10T07:21:15;101759.78;;;-6.75;80.04
33845;BME280;20145;43.118;25.694;2023-02-10T07:23:41;101754.34;;;-6.70;79.47
33845;BME280;20145;43.118;25.694;2023-02-10T07:26:06;101765.50;;;-6.58;80.45
33845;BME280;20145;43.118;25.694;2023-02-10T07:28:35;101764.91;;;-6.47;80.02
33845;BME280;20145;43.118;25.694;2023-02-10T07:31:01;101770.97;;;-6.45;78.39
33845;BME280;20145;43.118;25.694;2023-02-10T07:33:27;101744.56;;;-6.59;79.18
33845;BME280;20145;43.118;25.694;2023-02-10T07:35:53;101762.22;;;-6.40;79.21
33845;BME280;20145;43.118;25.694;2023-02-10T07:38:19;101771.78;;;-6.27;79.44
33845;BME280;20145;43.118;25.694;2023-02-10T07:40:45;101775.03;;;-6.28;78.31
33845;BME280;20145;43.118;25.694;2023-02-10T07:43:11;101758.31;;;-6.19;78.31
33845;BME280;20145;43.118;25.694;2023-02-10T07:45:36;101760.75;;;-6.01;78.85
33845;BME280;20145;43.118;25.694;2023-02-10T07:48:02;101754.25;;;-5.99;79.07
33845;BME280;20145;43.118;25.694;2023-02-10T07:50:28;101760.22;;;-5.89;78.61
33845;BME280;20145;43.118;25.694;2023-02-10T07:52:53;101750.38;;;-5.77;77.88
33845;BME280;20145;43.118;25.694;2023-02-10T07:55:19;101723.50;;;-5.78;77.07
33845;BME280;20145;43.118;25.694;2023-02-10T07:57:44;101748.19;;;-5.55;77.07
33845;BME280;20145;43.118;25.694;2023-02-10T08:00:10;101738.97;;;-5.46;77.79
33845;BME280;20145;43.118;25.694;2023-02-10T08:02:37;101740.06;;;-5.33;77.24
33845;BME280;20145;43.118;25.694;2023-02-10T08:05:03;101738.22;;;-5.26;77.40
33845;BME280;20145;43.118;25.694;2023-02-10T08:07:29;101733.19;;;-5.26;77.47
33845;BME280;20145;43.118;25.694;2023-02-10T08:09:54;101729.13;;;-5.15;78.34
33845;BME280;20145;43.118;25.694;2023-02-10T08:12:20;101726.34;;;-5.18;77.17
33845;BME280;20145;43.118;25.694;2023-02-10T08:14:46;101742.50;;;-5.06;77.99
33845;BME280;20145;43.118;25.694;2023-02-10T08:17:11;101736.78;;;-4.95;77.01
33845;BME280;20145;43.118;25.694;2023-02-10T08:19:38;101739.56;;;-4.91;76.58
33845;BME280;20145;43.118;25.694;2023-02-10T08:22:04;101744.75;;;-4.90;76.54
33845;BME280;20145;43.118;25.694;2023-02-10T08:24:30;101735.81;;;-4.86;77.78
33845;BME280;20145;43.118;25.694;2023-02-10T08:26:56;101739.38;;;-4.74;76.43
33845;BME280;20145;43.118;25.694;2023-02-10T08:29:21;101737.44;;;-4.58;75.92
33845;BME280;20145;43.118;25.694;2023-02-10T08:31:51;101744.03;;;-4.50;76.37
33845;BME280;20145;43.118;25.694;2023-02-10T08:34:18;101738.41;;;-4.37;76.27
33845;BME280;20145;43.118;25.694;2023-02-10T08:36:45;101747.75;;;-4.26;76.99
33845;BME280;20145;43.118;25.694;2023-02-10T08:39:12;101738.19;;;-4.19;75.33
33845;BME280;20145;43.118;25.694;2023-02-10T08:41:38;101730.00;;;-4.17;75.82
33845;BME280;20145;43.118;25.694;2023-02-10T08:44:04;101733.44;;;-4.06;75.79
33845;BME280;20145;43.118;25.694;2023-02-10T08:46:30;101731.56;;;-3.98;75.53
33845;BME280;20145;43.118;25.694;2023-02-10T08:48:56;101700.69;;;-4.06;75.20
33845;BME280;20145;43.118;25.694;2023-02-10T08:51:21;101718.56;;;-3.83;74.53
33845;BME280;20145;43.118;25.694;2023-02-10T08:53:48;101727.03;;;-3.62;73.98
33845;BME280;20145;43.118;25.694;2023-02-10T08:56:16;101727.41;;;-3.47;74.08
33845;BME280;20145;43.118;25.694;2023-02-10T08:58:43;101726.91;;;-3.32;73.18
33845;BME280;20145;43.118;25.694;2023-02-10T09:01:15;101724.00;;;-3.27;74.00
33845;BME280;20145;43.118;25.694;2023-02-10T09:03:41;101722.69;;;-3.22;73.36
33845;BME280;20145;43.118;25.694;2023-02-10T09:06:34;101724.97;;;-3.04;74.51
33845;BME280;20145;43.118;25.694;2023-02-10T09:09:06;101728.69;;;-2.89;74.18
33845;BME280;20145;43.118;25.694;2023-02-10T09:11:32;101719.72;;;-2.85;72.97
33845;BME280;20145;43.118;25.694;2023-02-10T09:13:58;101719.69;;;-2.75;71.67
33845;BME280;20145;43.118;25.694;2023-02-10T09:16:24;101718.00;;;-2.64;71.03
33845;BME280;20145;43.118;25.694;2023-02-10T09:18:50;101716.31;;;-2.54;70.17
33845;BME280;20145;43.118;25.694;2023-02-10T09:21:16;101717.72;;;-2.57;70.21
33845;BME280;20145;43.118;25.694;2023-02-10T09:23:42;101714.78;;;-2.52;71.14
33845;BME280;20145;43.118;25.694;2023-02-10T09:26:08;101719.06;;;-2.51;71.16
33845;BME280;20145;43.118;25.694;2023-02-10T09:28:35;101719.53;;;-2.44;71.16
33845;BME280;20145;43.118;25.694;2023-02-10T09:31:03;101720.00;;;-2.38;69.21
33845;BME280;20145;43.118;25.694;2023-02-10T09:33:29;101714.72;;;-2.41;69.47
33845;BME280;20145;43.118;25.694;2023-02-10T09:35:54;101720.66;;;-2.63;70.81
33845;BME280;20145;43.118;25.694;2023-02-10T09:38:20;101714.16;;;-2.81;71.58
33845;BME280;20145;43.118;25.694;2023-02-10T09:46:35;101689.84;;;-2.47;70.51
33845;BME280;20145;43.118;25.694;2023-02-10T09:54:08;101693.41;;;-2.23;70.40
33845;BME280;20145;43.118;25.694;2023-02-10T09:56:35;101691.78;;;-2.11;69.82
33845;BME280;20145;43.118;25.694;2023-02-10T09:59:01;101678.19;;;-2.01;68.06
33845;BME280;20145;43.118;25.694;2023-02-10T10:01:37;101673.28;;;-1.99;68.88
33845;BME280;20145;43.118;25.694;2023-02-10T10:04:13;101666.19;;;-2.04;69.17
33845;BME280;20145;43.118;25.694;2023-02-10T10:06:40;101677.91;;;-1.94;68.63
33845;BME280;20145;43.118;25.694;2023-02-10T10:11:48;101660.06;;;-1.95;68.34
33845;BME280;20145;43.118;25.694;2023-02-10T10:14:23;101668.47;;;-1.85;68.39
33845;BME280;20145;43.118;25.694;2023-02-10T10:30:18;101659.50;;;-1.58;68.64
33845;BME280;20145;43.118;25.694;2023-02-10T10:32:47;101667.75;;;-1.60;68.61
33845;BME280;20145;43.118;25.694;2023-02-10T10:35:19;101651.47;;;-1.52;69.54
33845;BME280;20145;43.118;25.694;2023-02-10T10:37:46;101646.41;;;-1.40;69.52
33845;BME280;20145;43.118;25.694;2023-02-10T10:40:26;101652.13;;;-1.43;68.40
33845;BME280;20145;43.118;25.694;2023-02-10T10:42:56;101648.59;;;-1.45;69.02
33845;BME280;20145;43.118;25.694;2023-02-10T10:45:39;101650.69;;;-1.39;68.84
33845;BME280;20145;43.118;25.694;2023-02-10T10:48:15;101639.03;;;-1.25;69.82
33845;BME280;20145;43.118;25.694;2023-02-10T10:50:42;101636.25;;;-1.17;69.49
33845;BME280;20145;43.118;25.694;2023-02-10T10:53:22;101629.53;;;-1.04;69.31
33845;BME280;20145;43.118;25.694;2023-02-10T10:55:58;101613.00;;;-0.87;68.86
33845;BME280;20145;43.118;25.694;2023-02-10T10:58:41;101619.22;;;-0.71;68.95
33845;BME280;20145;43.118;25.694;2023-02-10T11:01:08;101609.22;;;-0.81;68.03
33845;BME280;20145;43.118;25.694;2023-02-10T11:03:34;101607.47;;;-0.82;68.44
33845;BME280;20145;43.118;25.694;2023-02-10T11:06:12;101609.13;;;-0.82;67.66
33845;BME280;20145;43.118;25.694;2023-02-10T11:09:01;101608.56;;;-0.78;67.54
33845;BME280;20145;43.118;25.694;2023-02-10T11:12:04;101599.28;;;-0.66;67.69
33845;BME280;20145;43.118;25.694;2023-02-10T11:14:38;101598.34;;;-0.55;66.25
33845;BME280;20145;43.118;25.694;2023-02-10T11:17:30;101600.97;;;-0.53;66.93
33845;BME280;20145;43.118;25.694;2023-02-10T11:20:02;101589.22;;;-0.39;65.86
33845;BME280;20145;43.118;25.694;2023-02-10T11:22:28;101586.84;;;-0.25;66.32
33845;BME280;20145;43.118;25.694;2023-02-10T11:24:59;101578.34;;;-0.25;65.51
33845;BME280;20145;43.118;25.694;2023-02-10T11:27:26;101573.59;;;-0.20;66.20
33845;BME280;20145;43.118;25.694;2023-02-10T11:29:57;101568.31;;;-0.24;67.52
33845;BME280;20145;43.118;25.694;2023-02-10T11:32:28;101563.25;;;-0.24;66.84
33845;BME280;20145;43.118;25.694;2023-02-10T11:34:57;101562.78;;;-0.18;67.11
33845;BME280;20145;43.118;25.694;2023-02-10T11:37:53;101557.72;;;-0.05;66.60
33845;BME280;20145;43.118;25.694;2023-02-10T11:40:26;101555.69;;;0.03;65.56
33845;BME280;20145;43.118;25.694;2023-02-10T11:42:57;101556.84;;;-0.05;64.66
33845;BME280;20145;43.118;25.694;2023-02-10T11:45:29;101555.06;;;-0.06;64.33
33845;BME280;20145;43.118;25.694;2023-02-10T11:48:18;101547.66;;;-0.03;65.05
33845;BME280;20145;43.118;25.694;2023-02-10T11:50:45;101544.25;;;-0.04;64.21
33845;BME280;20145;43.118;25.694;2023-02-10T11:53:25;101541.72;;;-0.04;64.79
33845;BME280;20145;43.118;25.694;2023-02-10T11:56:01;101548.63;;;-0.14;63.43
33845;BME280;20145;43.118;25.694;2023-02-10T11:59:02;101542.78;;;-0.13;64.97
33845;BME280;20145;43.118;25.694;2023-02-10T12:07:20;101533.66;;;-0.36;63.98
33845;BME280;20145;43.118;25.694;2023-02-10T12:15:00;101526.97;;;-0.09;62.68
33845;BME280;20145;43.118;25.694;2023-02-10T12:25:26;101522.59;;;0.02;61.40
33845;BME280;20145;43.118;25.694;2023-02-10T12:28:25;101513.22;;;0.14;62.32
33845;BME280;20145;43.118;25.694;2023-02-10T12:34:02;101519.88;;;0.38;58.96
33845;BME280;20145;43.118;25.694;2023-02-10T12:36:52;101517.72;;;0.44;58.44
33845;BME280;20145;43.118;25.694;2023-02-10T12:47:11;101502.94;;;0.65;59.37
33845;BME280;20145;43.118;25.694;2023-02-10T12:52:42;101496.88;;;0.63;58.98
33845;BME280;20145;43.118;25.694;2023-02-10T12:55:14;101501.94;;;0.63;58.31
33845;BME280;20145;43.118;25.694;2023-02-10T13:00:21;101489.91;;;0.74;59.25
33845;BME280;20145;43.118;25.694;2023-02-10T13:02:54;101489.69;;;0.84;59.07
33845;BME280;20145;43.118;25.694;2023-02-10T13:05:27;101490.69;;;0.86;59.71
33845;BME280;20145;43.118;25.694;2023-02-10T13:08:04;101490.06;;;0.91;58.70
33845;BME280;20145;43.118;25.694;2023-02-10T13:10:41;101482.59;;;0.79;58.24
33845;BME280;20145;43.118;25.694;2023-02-10T13:13:25;101492.13;;;0.83;59.64
33845;BME280;20145;43.118;25.694;2023-02-10T13:18:22;101483.47;;;0.79;57.02
33845;BME280;20145;43.118;25.694;2023-02-10T13:21:09;101489.41;;;0.80;55.86
33845;BME280;20145;43.118;25.694;2023-02-10T13:34:27;101480.69;;;0.89;56.57
33845;BME280;20145;43.118;25.694;2023-02-10T13:36:55;101468.50;;;0.84;57.62
33845;BME280;20145;43.118;25.694;2023-02-10T13:39:24;101477.91;;;1.00;58.20
33845;BME280;20145;43.118;25.694;2023-02-10T13:45:04;101472.75;;;0.98;56.07
33845;BME280;20145;43.118;25.694;2023-02-10T13:47:51;101475.09;;;0.95;57.43
33845;BME280;20145;43.118;25.694;2023-02-10T13:50:41;101471.88;;;0.98;56.85
33845;BME280;20145;43.118;25.694;2023-02-10T13:56:13;101473.63;;;0.99;56.38
33845;BME280;20145;43.118;25.694;2023-02-10T13:58:59;101481.94;;;0.96;56.15
33845;BME280;20145;43.118;25.694;2023-02-10T14:01:48;101480.78;;;0.91;56.86
33845;BME280;20145;43.118;25.694;2023-02-10T14:06:48;101481.69;;;0.92;56.40
33845;BME280;20145;43.118;25.694;2023-02-10T14:11:54;101482.19;;;0.86;56.55
33845;BME280;20145;43.118;25.694;2023-02-10T14:14:26;101484.13;;;0.90;56.60
33845;BME280;20145;43.118;25.694;2023-02-10T14:17:05;101481.28;;;0.85;56.45
33845;BME280;20145;43.118;25.694;2023-02-10T14:19:35;101486.47;;;0.87;57.26
33845;BME280;20145;43.118;25.694;2023-02-10T14:22:03;101470.03;;;0.67;56.90
33845;BME280;20145;43.118;25.694;2023-02-10T14:24:34;101484.47;;;0.68;57.13